createdAt,value
2023-01-28T00:02:19.997Z,1.30
2023-01-28T00:04:48.040Z,1.30
2023-01-28T00:07:17.433Z,1.35
2023-01-28T00:09:45.406Z,1.34
2023-01-28T00:12:13.433Z,1.41
2023-01-28T00:14:41.431Z,1.37
2023-01-28T00:17:09.425Z,1.46
2023-01-28T00:19:37.805Z,1.44
2023-01-28T00:22:05.806Z,1.39
2023-01-28T00:24:35.143Z,1.36
2023-01-28T00:27:03.147Z,1.39
2023-01-28T00:29:31.143Z,1.46
2023-01-28T00:31:59.177Z,1.35
2023-01-28T00:34:27.205Z,1.33
2023-01-28T00:36:58.472Z,1.37
2023-01-28T00:39:26.512Z,1.40
2023-01-28T00:41:55.941Z,1.46
2023-01-28T00:44:23.970Z,1.42
2023-01-28T00:46:51.996Z,1.36
2023-01-28T00:49:20.002Z,1.31
2023-01-28T00:51:48.938Z,1.35
2023-01-28T00:54:17.169Z,1.37
2023-01-28T00:56:45.161Z,1.37
2023-01-28T00:59:14.559Z,1.31
2023-01-28T01:01:42.628Z,1.29
2023-01-28T01:04:10.630Z,1.26
2023-01-28T01:06:39.866Z,1.32
2023-01-28T01:09:09.963Z,1.30
2023-01-28T01:11:37.912Z,1.30
2023-01-28T01:14:07.079Z,1.35
2023-01-28T01:16:36.640Z,1.25
2023-01-28T01:19:04.630Z,1.28
2023-01-28T01:21:32.653Z,1.28
2023-01-28T01:24:00.763Z,1.28
2023-01-28T01:26:28.830Z,1.29
2023-01-28T01:28:56.855Z,1.35
2023-01-28T01:31:24.872Z,1.38
2023-01-28T01:33:54.280Z,1.43
2023-01-28T01:36:22.480Z,1.37
2023-01-28T01:38:54.368Z,1.44
2023-01-28T01:41:25.841Z,1.37
2023-01-28T01:43:54.849Z,1.26
2023-01-28T01:46:25.815Z,1.37
2023-01-28T01:48:55.181Z,1.28
2023-01-28T01:51:24.936Z,1.28
2023-01-28T01:53:53.843Z,1.15
2023-01-28T01:56:23.217Z,1.27
2023-01-28T01:58:51.835Z,1.28
2023-01-28T02:01:20.885Z,1.32
2023-01-28T02:03:52.487Z,1.31
2023-01-28T02:06:21.886Z,1.32
2023-01-28T02:08:49.905Z,1.32
2023-01-28T02:11:17.892Z,1.25
2023-01-28T02:13:47.263Z,1.30
2023-01-28T02:16:15.231Z,1.39
2023-01-28T02:18:43.247Z,1.35
2023-01-28T02:21:39.199Z,1.34
2023-01-28T02:24:17.032Z,1.40
2023-01-28T02:26:52.224Z,1.39
2023-01-28T02:29:23.511Z,1.37
2023-01-28T02:31:54.021Z,1.46
2023-01-28T02:34:26.405Z,1.53
2023-01-28T02:36:55.971Z,1.54
2023-01-28T02:39:25.027Z,1.53
2023-01-28T02:41:54.716Z,1.35
2023-01-28T02:44:24.071Z,1.34
2023-01-28T02:47:10.669Z,1.36
2023-01-28T02:49:41.336Z,1.31
2023-01-28T02:52:41.036Z,1.29
2023-01-28T02:55:11.087Z,1.16
2023-01-28T02:57:40.095Z,1.31
2023-01-28T03:00:12.140Z,1.37
2023-01-28T03:02:43.218Z,1.36
2023-01-28T03:05:13.894Z,1.46
2023-01-28T03:07:42.037Z,1.43
2023-01-28T03:10:11.435Z,1.45
2023-01-28T03:12:58.620Z,1.46
2023-01-28T03:15:46.706Z,1.45
2023-01-28T03:18:33.804Z,1.37
2023-01-28T03:21:23.137Z,1.39
2023-01-28T03:24:12.584Z,1.42
2023-01-28T03:27:02.618Z,1.51
2023-01-28T03:29:48.110Z,1.42
2023-01-28T03:32:34.569Z,1.36
2023-01-28T03:35:20.020Z,1.37
2023-01-28T03:37:47.981Z,1.31
2023-01-28T03:40:15.928Z,1.18
2023-01-28T03:42:43.890Z,1.26
2023-01-28T03:45:14.469Z,1.32
2023-01-28T03:47:44.693Z,1.24
2023-01-28T03:50:12.637Z,1.30
2023-01-28T03:52:40.640Z,1.37
2023-01-28T03:55:14.269Z,1.36
2023-01-28T03:57:44.777Z,1.42
2023-01-28T04:00:14.341Z,1.40
2023-01-28T04:02:43.755Z,1.37
2023-01-28T04:05:15.885Z,1.39
2023-01-28T04:07:44.098Z,1.38
2023-01-28T04:10:12.134Z,1.24
2023-01-28T04:12:40.062Z,1.31
2023-01-28T04:15:16.078Z,1.33
2023-01-28T04:17:48.985Z,1.29
2023-01-28T04:20:17.328Z,1.32
2023-01-28T04:22:45.300Z,1.35
2023-01-28T04:25:13.789Z,1.31
2023-01-28T04:27:41.917Z,1.34
2023-01-28T04:30:11.212Z,1.30
2023-01-28T04:32:39.315Z,1.31
2023-01-28T04:35:09.484Z,1.32
2023-01-28T04:37:37.909Z,1.40
2023-01-28T04:40:06.780Z,1.41
2023-01-28T04:42:34.695Z,1.31
2023-01-28T04:45:02.633Z,1.38
2023-01-28T04:47:30.586Z,1.42
2023-01-28T04:49:58.511Z,1.42
2023-01-28T04:52:27.821Z,1.39
2023-01-28T04:54:55.928Z,1.38
2023-01-28T04:57:23.890Z,1.35
2023-01-28T04:59:51.864Z,1.34
2023-01-28T05:02:19.830Z,1.21
2023-01-28T05:04:47.798Z,1.26
2023-01-28T05:07:15.716Z,1.29
2023-01-28T05:09:45.009Z,1.26
2023-01-28T05:12:12.965Z,1.30
2023-01-28T05:14:40.908Z,1.32
2023-01-28T05:17:08.897Z,1.28
2023-01-28T05:19:36.871Z,1.31
2023-01-28T05:22:04.867Z,1.36
2023-01-28T05:24:32.881Z,1.34
2023-01-28T05:27:02.225Z,1.32
2023-01-28T05:29:30.141Z,1.29
2023-01-28T05:31:58.083Z,1.34
2023-01-28T05:34:26.380Z,1.42
2023-01-28T05:36:54.353Z,1.37
2023-01-28T05:39:22.279Z,1.35
2023-01-28T05:41:50.204Z,1.39
2023-01-28T05:44:19.566Z,1.39
2023-01-28T05:46:47.552Z,1.44
2023-01-28T05:49:15.545Z,1.43
2023-01-28T05:51:43.721Z,1.47
2023-01-28T05:54:11.803Z,1.41
2023-01-28T05:56:40.379Z,1.37
2023-01-28T05:59:10.390Z,1.32
2023-01-28T06:01:39.697Z,1.26
2023-01-28T06:04:07.654Z,1.18
2023-01-28T06:06:35.675Z,1.30
2023-01-28T06:09:03.631Z,1.37
2023-01-28T06:11:31.536Z,1.41
2023-01-28T06:13:59.672Z,1.41
2023-01-28T06:16:27.663Z,1.44
2023-01-28T06:18:57.025Z,1.46
2023-01-28T06:21:25.052Z,1.49
2023-01-28T06:23:53.065Z,1.50
2023-01-28T06:26:20.975Z,1.53
2023-01-28T06:28:50.155Z,1.61
2023-01-28T06:31:18.474Z,1.66
2023-01-28T06:33:46.430Z,1.63
2023-01-28T06:36:15.789Z,1.69
2023-01-28T06:38:43.751Z,1.43
2023-01-28T06:41:11.666Z,1.68
2023-01-28T06:43:39.613Z,1.66
2023-01-28T06:46:07.640Z,1.59
2023-01-28T06:48:35.672Z,1.53
2023-01-28T06:51:03.623Z,1.58
2023-01-28T06:53:32.909Z,1.54
2023-01-28T06:56:00.882Z,1.49
2023-01-28T06:58:28.840Z,1.58
2023-01-28T07:00:56.760Z,1.56
2023-01-28T07:03:24.727Z,1.66
2023-01-28T07:05:52.699Z,1.59
2023-01-28T07:08:20.719Z,1.45
2023-01-28T07:10:50.388Z,1.41
2023-01-28T07:13:18.306Z,1.59
2023-01-28T07:15:46.261Z,1.60
2023-01-28T07:18:14.191Z,1.49
2023-01-28T07:20:42.150Z,1.54
2023-01-28T07:23:10.090Z,1.66
2023-01-28T07:25:38.019Z,1.71
2023-01-28T07:28:07.375Z,1.81
2023-01-28T07:30:35.255Z,1.88
2023-01-28T07:33:03.233Z,1.93
2023-01-28T07:35:32.479Z,2.03
2023-01-28T07:38:01.400Z,1.94
2023-01-28T07:40:29.670Z,2.02
2023-01-28T07:42:57.686Z,2.07
2023-01-28T07:45:28.776Z,2.12
2023-01-28T07:47:57.811Z,2.20
2023-01-28T07:50:25.875Z,2.37
2023-01-28T07:52:53.933Z,2.46
2023-01-28T07:55:21.867Z,2.60
2023-01-28T07:57:50.940Z,2.44
2023-01-28T08:00:19.766Z,2.56
2023-01-28T08:02:49.153Z,2.71
2023-01-28T08:05:18.082Z,2.61
2023-01-28T08:07:46.165Z,2.52
2023-01-28T08:10:14.443Z,2.62
2023-01-28T08:12:42.599Z,2.64
2023-01-28T08:15:11.165Z,2.77
2023-01-28T08:17:39.077Z,2.84
2023-01-28T08:20:10.292Z,2.91
2023-01-28T08:22:38.221Z,2.93
2023-01-28T08:25:06.855Z,2.99
2023-01-28T08:27:34.787Z,3.07
2023-01-28T08:30:02.785Z,3.06
2023-01-28T08:32:31.038Z,3.12
2023-01-28T08:34:58.997Z,3.07
2023-01-28T08:37:28.295Z,2.98
2023-01-28T08:39:56.277Z,3.13
2023-01-28T08:42:24.195Z,3.15
2023-01-28T08:44:52.105Z,3.10
2023-01-28T08:47:20.404Z,3.03
2023-01-28T08:49:48.344Z,3.14
2023-01-28T08:52:16.260Z,3.19
2023-01-28T08:54:45.564Z,3.20
2023-01-28T08:57:13.498Z,3.20
2023-01-28T08:59:45.139Z,3.21
2023-01-28T09:02:30.239Z,3.27
2023-01-28T09:04:59.257Z,3.27
2023-01-28T09:07:27.179Z,3.33
2023-01-28T09:09:56.489Z,3.40
2023-01-28T09:12:24.499Z,3.41
2023-01-28T09:14:53.020Z,3.25
2023-01-28T09:17:21.005Z,3.26
2023-01-28T09:19:48.961Z,3.24
2023-01-28T09:22:16.890Z,3.33
2023-01-28T09:24:44.885Z,3.41
2023-01-28T09:27:14.235Z,3.39
2023-01-28T09:29:42.215Z,3.32
2023-01-28T09:32:10.124Z,3.32
2023-01-28T09:34:38.570Z,3.39
2023-01-28T09:37:06.542Z,3.46
2023-01-28T09:39:34.514Z,3.47
2023-01-28T09:42:11.808Z,3.36
2023-01-28T09:44:45.911Z,3.34
2023-01-28T09:47:16.864Z,3.10
2023-01-28T09:49:46.863Z,3.25
2023-01-28T09:52:16.931Z,3.46
2023-01-28T09:54:46.261Z,3.47
2023-01-28T09:57:15.240Z,3.50
2023-01-28T09:59:44.589Z,3.50
2023-01-28T10:02:28.414Z,3.48
2023-01-28T10:05:00.321Z,3.51
2023-01-28T10:07:36.119Z,3.60
2023-01-28T10:10:07.679Z,3.64
2023-01-28T10:12:48.831Z,3.56
2023-01-28T10:15:48.337Z,3.35
2023-01-28T10:18:18.232Z,3.30
2023-01-28T10:20:48.183Z,3.29
2023-01-28T10:23:17.806Z,3.29
2023-01-28T10:25:48.267Z,3.32
2023-01-28T10:28:20.421Z,3.32
2023-01-28T10:30:50.155Z,3.32
2023-01-28T10:33:20.437Z,3.19
2023-01-28T10:35:49.186Z,3.31
2023-01-28T10:38:18.402Z,3.26
2023-01-28T10:40:48.137Z,3.30
2023-01-28T10:43:17.667Z,3.43
2023-01-28T10:45:51.167Z,3.38
2023-01-28T10:48:21.692Z,3.45
2023-01-28T10:50:52.660Z,3.44
2023-01-28T10:53:20.820Z,3.41
2023-01-28T10:55:52.019Z,3.42
2023-01-28T10:58:21.025Z,3.42
2023-01-28T11:00:53.794Z,3.30
2023-01-28T11:03:21.798Z,3.35
2023-01-28T11:05:52.729Z,3.38
2023-01-28T11:08:20.743Z,3.43
2023-01-28T11:10:48.826Z,3.41
2023-01-28T11:13:18.536Z,3.21
2023-01-28T11:15:51.469Z,3.24
2023-01-28T11:18:20.795Z,3.33
2023-01-28T11:20:52.904Z,3.45
2023-01-28T11:23:23.143Z,3.51
2023-01-28T11:25:51.097Z,3.62
2023-01-28T11:28:20.808Z,3.55
2023-01-28T11:30:53.499Z,3.59
2023-01-28T11:33:22.600Z,3.60
2023-01-28T11:35:56.871Z,3.58
2023-01-28T11:38:25.580Z,3.46
2023-01-28T11:40:54.021Z,3.52
2023-01-28T11:43:22.234Z,3.61
2023-01-28T11:45:53.771Z,3.63
2023-01-28T11:48:28.311Z,3.49
2023-01-28T11:50:58.985Z,3.30
2023-01-28T11:53:43.240Z,3.32
2023-01-28T11:56:28.642Z,3.23
2023-01-28T11:59:00.854Z,3.22
2023-01-28T12:01:33.767Z,3.22
2023-01-28T12:04:17.865Z,3.13
2023-01-28T12:06:53.652Z,3.13
2023-01-28T12:09:25.601Z,3.07
2023-01-28T12:12:13.840Z,3.23
2023-01-28T12:15:18.325Z,3.32
2023-01-28T12:17:54.749Z,3.21
2023-01-28T12:20:25.818Z,3.18
2023-01-28T12:23:03.108Z,3.26
2023-01-28T12:25:41.481Z,3.47
2023-01-28T12:28:12.676Z,3.53
2023-01-28T12:30:48.986Z,3.48
2023-01-28T12:33:40.029Z,3.46
2023-01-28T12:36:13.021Z,3.54
2023-01-28T12:38:45.881Z,3.56
2023-01-28T12:41:15.134Z,3.65
2023-01-28T12:43:47.265Z,3.55
2023-01-28T12:46:20.110Z,3.50
2023-01-28T12:48:51.073Z,3.66
2023-01-28T12:51:21.097Z,3.66
2023-01-28T12:53:51.043Z,3.60
2023-01-28T12:56:19.536Z,3.58
2023-01-28T12:58:50.248Z,3.43
2023-01-28T13:01:20.340Z,3.33
2023-01-28T13:03:52.861Z,3.21
2023-01-28T13:06:22.847Z,3.25
2023-01-28T13:08:50.850Z,3.03
2023-01-28T13:11:18.806Z,3.27
2023-01-28T13:13:46.909Z,3.36
2023-01-28T13:16:15.047Z,3.40
2023-01-28T13:18:47.059Z,3.44
2023-01-28T13:21:20.410Z,3.48
2023-01-28T13:23:49.304Z,3.45
2023-01-28T13:26:31.953Z,3.29
2023-01-28T13:29:17.321Z,3.24
2023-01-28T13:31:46.199Z,3.12
2023-01-28T13:34:29.731Z,3.15
2023-01-28T13:36:59.051Z,3.18
2023-01-28T13:39:27.382Z,3.13
2023-01-28T13:41:56.147Z,3.07
2023-01-28T13:44:28.914Z,3.03
2023-01-28T13:46:57.637Z,3.09
2023-01-28T13:49:28.256Z,3.06
2023-01-28T13:52:08.992Z,3.09
2023-01-28T13:54:37.159Z,3.04
2023-01-28T13:57:18.985Z,3.02
2023-01-28T13:59:50.689Z,2.96
2023-01-28T14:02:31.706Z,2.94
2023-01-28T14:05:31.843Z,2.86
2023-01-28T14:08:18.539Z,2.85
2023-01-28T14:10:53.225Z,2.86
2023-01-28T14:13:47.893Z,2.81
2023-01-28T14:16:42.018Z,2.77
2023-01-28T14:19:11.526Z,2.78
2023-01-28T14:21:39.457Z,2.78
2023-01-28T14:24:13.902Z,2.84
2023-01-28T14:26:48.679Z,2.87
2023-01-28T14:29:28.464Z,2.90
2023-01-28T14:31:56.527Z,2.96
2023-01-28T14:34:25.962Z,2.99
2023-01-28T14:36:56.048Z,3.02
2023-01-28T14:39:28.099Z,2.97
2023-01-28T14:41:57.755Z,2.86
2023-01-28T14:44:29.780Z,2.93
2023-01-28T14:47:23.001Z,2.89
2023-01-28T14:50:03.046Z,2.91
2023-01-28T14:52:46.615Z,2.77
2023-01-28T14:55:24.663Z,2.83
2023-01-28T14:57:53.550Z,2.87
2023-01-28T15:00:23.275Z,2.84
2023-01-28T15:02:51.432Z,2.82
2023-01-28T15:05:22.805Z,2.72
2023-01-28T15:07:50.900Z,2.55
2023-01-28T15:10:22.269Z,2.53
2023-01-28T15:12:52.903Z,2.59
2023-01-28T15:15:26.063Z,2.64
2023-01-28T15:17:54.010Z,2.58
2023-01-28T15:20:22.729Z,2.55
2023-01-28T15:22:50.980Z,2.47
2023-01-28T15:25:21.214Z,2.48
2023-01-28T15:27:50.933Z,2.41
2023-01-28T15:30:24.424Z,2.47
2023-01-28T15:33:02.623Z,2.45
2023-01-28T15:35:30.568Z,2.44
2023-01-28T15:37:58.536Z,2.33
2023-01-28T15:40:27.909Z,2.40
2023-01-28T15:42:57.623Z,2.43
2023-01-28T15:45:26.595Z,2.42
2023-01-28T15:47:55.139Z,2.46
2023-01-28T15:50:26.725Z,2.48
2023-01-28T15:52:55.698Z,2.47
2023-01-28T15:55:36.656Z,2.50
2023-01-28T15:58:29.598Z,2.49
2023-01-28T16:01:05.149Z,2.54
2023-01-28T16:03:34.432Z,2.52
2023-01-28T16:06:03.103Z,2.55
2023-01-28T16:08:35.804Z,2.55
2023-01-28T16:11:05.228Z,2.60
2023-01-28T16:13:33.878Z,2.60
2023-01-28T16:16:02.492Z,2.57
2023-01-28T16:18:32.525Z,2.60
2023-01-28T16:21:00.698Z,2.59
2023-01-28T16:23:29.205Z,2.60
2023-01-28T16:26:00.761Z,2.68
2023-01-28T16:28:33.024Z,2.66
2023-01-28T16:31:01.074Z,2.69
2023-01-28T16:33:29.100Z,2.73
2023-01-28T16:36:07.808Z,2.66
2023-01-28T16:38:36.474Z,2.63
2023-01-28T16:41:04.383Z,2.67
2023-01-28T16:46:02.500Z,2.68
2023-01-28T16:48:30.627Z,2.60
2023-01-28T16:50:58.645Z,2.53
2023-01-28T16:53:28.896Z,2.54
2023-01-28T16:55:56.869Z,2.53
2023-01-28T16:58:26.136Z,2.50
2023-01-28T17:00:55.499Z,2.51
2023-01-28T17:03:23.764Z,2.49
2023-01-28T17:05:51.777Z,2.51
2023-01-28T17:08:19.751Z,2.48
2023-01-28T17:10:52.205Z,2.48
2023-01-28T17:13:20.119Z,2.43
2023-01-28T17:15:48.088Z,2.44
2023-01-28T17:18:17.447Z,2.41
2023-01-28T17:20:45.400Z,2.44
2023-01-28T17:23:15.389Z,2.43
2023-01-28T17:25:43.468Z,2.43
2023-01-28T17:28:11.773Z,2.45
2023-01-28T17:30:41.265Z,2.47
2023-01-28T17:33:09.508Z,2.46
2023-01-28T17:35:38.813Z,2.47
2023-01-28T17:38:06.765Z,2.48
2023-01-28T17:40:34.695Z,2.47
2023-01-28T17:43:02.609Z,2.51
2023-01-28T17:45:32.348Z,2.53
2023-01-28T17:48:00.465Z,2.60
2023-01-28T17:50:28.529Z,2.54
2023-01-28T17:52:57.859Z,2.53
2023-01-28T17:55:26.103Z,2.56
2023-01-28T17:57:54.061Z,2.55
2023-01-28T18:00:22.610Z,2.53
2023-01-28T18:02:52.444Z,2.56
2023-01-28T18:05:20.407Z,2.57
2023-01-28T18:07:50.274Z,2.59
2023-01-28T18:10:19.772Z,2.57
2023-01-28T18:12:47.744Z,2.57
2023-01-28T18:15:16.157Z,2.57
2023-01-28T18:17:44.352Z,2.57
2023-01-28T18:20:12.732Z,2.53
2023-01-28T18:22:40.694Z,2.55
2023-01-28T18:25:09.172Z,2.53
2023-01-28T18:27:38.510Z,2.52
2023-01-28T18:30:07.288Z,2.52
2023-01-28T18:32:35.547Z,2.54
2023-01-28T18:35:03.585Z,2.54
2023-01-28T18:37:31.549Z,2.53
2023-01-28T18:39:59.459Z,2.51
2023-01-28T18:42:27.448Z,2.49
2023-01-28T18:44:56.788Z,2.51
2023-01-28T18:47:24.878Z,2.54
2023-01-28T18:49:52.859Z,2.51
2023-01-28T18:52:20.796Z,2.48
2023-01-28T18:54:48.737Z,2.43
2023-01-28T18:57:16.649Z,2.45
2023-01-28T18:59:44.605Z,2.43
2023-01-28T19:02:14.344Z,2.37
2023-01-28T19:04:42.618Z,2.28
2023-01-28T19:07:11.895Z,2.28
2023-01-28T19:09:40.019Z,2.24
2023-01-28T19:12:08.047Z,2.13
2023-01-28T19:14:35.962Z,2.17
2023-01-28T19:17:03.928Z,2.17
2023-01-28T19:19:33.269Z,2.18
2023-01-28T19:22:01.241Z,2.18
2023-01-28T19:24:29.495Z,2.11
2023-01-28T19:26:57.507Z,2.05
2023-01-28T19:29:27.321Z,2.05
2023-01-28T19:31:55.351Z,2.01
2023-01-28T19:34:23.356Z,2.04
2023-01-28T19:36:52.697Z,2.08
2023-01-28T19:39:20.752Z,2.02
2023-01-28T19:41:48.683Z,2.02
2023-01-28T19:44:16.602Z,2.06
2023-01-28T19:46:44.575Z,2.03
2023-01-28T19:49:13.093Z,2.06
2023-01-28T19:51:41.034Z,2.06
2023-01-28T19:54:10.390Z,2.04
2023-01-28T19:56:38.682Z,2.11
2023-01-28T19:59:06.734Z,2.07
2023-01-28T20:01:36.066Z,2.11
2023-01-28T20:04:04.817Z,2.13
2023-01-28T20:06:32.889Z,2.11
2023-01-28T20:09:01.565Z,2.14
2023-01-28T20:11:31.010Z,2.14
2023-01-28T20:13:59.889Z,2.16
2023-01-28T20:16:28.847Z,1.97
2023-01-28T20:18:57.557Z,2.23
2023-01-28T20:21:25.743Z,2.27
2023-01-28T20:23:54.531Z,2.28
2023-01-28T20:26:24.292Z,2.31
2023-01-28T20:28:53.630Z,2.28
2023-01-28T20:31:21.658Z,2.29
2023-01-28T20:33:49.648Z,2.24
2023-01-28T20:36:17.614Z,2.23
2023-01-28T20:38:46.415Z,2.28
2023-01-28T20:41:15.142Z,2.33
2023-01-28T20:43:43.878Z,2.35
2023-01-28T20:46:14.050Z,2.31
2023-01-28T20:48:42.158Z,2.41
2023-01-28T20:51:11.099Z,2.48
2023-01-28T20:53:39.242Z,2.44
2023-01-28T20:56:07.720Z,2.45
2023-01-28T20:58:35.668Z,2.42
2023-01-28T21:01:03.824Z,2.45
2023-01-28T21:03:33.297Z,2.45
2023-01-28T21:06:01.823Z,2.50
2023-01-28T21:08:29.772Z,2.51
2023-01-28T21:10:57.698Z,2.54
2023-01-28T21:13:25.703Z,2.48
2023-01-28T21:15:54.152Z,2.54
2023-01-28T21:18:22.270Z,2.52
2023-01-28T21:20:51.535Z,2.59
2023-01-28T21:23:19.504Z,2.50
2023-01-28T21:25:47.703Z,2.53
2023-01-28T21:28:15.714Z,2.40
2023-01-28T21:30:43.748Z,2.44
2023-01-28T21:33:11.739Z,2.49
2023-01-28T21:35:39.792Z,2.49
2023-01-28T21:38:09.201Z,2.55
2023-01-28T21:40:37.222Z,2.57
2023-01-28T21:43:05.190Z,2.57
2023-01-28T21:45:33.159Z,2.57
2023-01-28T21:48:01.104Z,2.53
2023-01-28T21:50:29.036Z,2.54
2023-01-28T21:52:56.992Z,2.55
2023-01-28T21:55:26.308Z,2.53
2023-01-28T21:58:14.254Z,2.50
2023-01-28T22:00:41.192Z,2.62
2023-01-28T22:03:09.155Z,2.54
2023-01-28T22:05:37.138Z,2.60
2023-01-28T22:08:05.224Z,2.60
2023-01-28T22:10:36.247Z,2.55
2023-01-28T22:13:04.228Z,2.54
2023-01-28T22:15:33.447Z,2.53
2023-01-28T22:18:01.417Z,2.52
2023-01-28T22:20:31.376Z,2.43
2023-01-28T22:22:59.535Z,2.43
2023-01-28T22:25:27.500Z,2.43
2023-01-28T22:27:56.933Z,2.36
2023-01-28T22:30:24.871Z,2.46
2023-01-28T22:32:52.809Z,2.45
2023-01-28T22:35:20.757Z,2.46
2023-01-28T22:37:48.715Z,2.37
2023-01-28T22:40:17.259Z,2.43
2023-01-28T22:42:45.307Z,2.43
2023-01-28T22:45:14.760Z,2.43
2023-01-28T22:47:44.507Z,2.47
2023-01-28T22:50:13.003Z,2.53
2023-01-28T22:52:40.999Z,2.55
2023-01-28T22:55:09.749Z,2.54
2023-01-28T22:57:37.676Z,2.51
2023-01-28T23:00:08.022Z,2.56
2023-01-28T23:02:38.189Z,2.55
2023-01-28T23:05:06.749Z,2.56
2023-01-28T23:07:34.714Z,2.61
2023-01-28T23:10:02.679Z,2.55
2023-01-28T23:12:30.786Z,2.58
2023-01-28T23:15:16.360Z,2.60
2023-01-28T23:18:03.035Z,2.51
2023-01-28T23:20:53.795Z,2.43
2023-01-28T23:23:50.805Z,2.45
2023-01-28T23:26:18.752Z,2.48
2023-01-28T23:28:46.667Z,2.55
2023-01-28T23:31:14.701Z,2.58
2023-01-28T23:33:44.149Z,2.61
2023-01-28T23:36:12.074Z,2.59
2023-01-28T23:38:40.074Z,2.57
2023-01-28T23:41:08.767Z,2.62
2023-01-28T23:43:36.753Z,2.60
2023-01-28T23:46:04.802Z,2.56
2023-01-28T23:48:32.771Z,2.58
2023-01-28T23:51:02.123Z,2.54
2023-01-28T23:53:30.066Z,2.60
2023-01-28T23:55:58.038Z,2.61
2023-01-28T23:58:42.333Z,2.62
